createdAt,value
2017-05-13T00:00:17.194Z,0
2017-05-13T00:00:57.806Z,0
2017-05-13T00:01:38.402Z,0
2017-05-13T00:02:18.989Z,0
2017-05-13T00:02:59.572Z,0
2017-05-13T00:03:40.177Z,0
2017-05-13T00:04:20.803Z,0
2017-05-13T00:05:01.384Z,0
2017-05-13T00:05:41.964Z,0
2017-05-13T00:06:22.570Z,0
2017-05-13T00:07:03.188Z,0
2017-05-13T00:07:43.797Z,0
2017-05-13T00:08:24.418Z,0
2017-05-13T00:09:05.045Z,0
2017-05-13T00:09:45.658Z,0
2017-05-13T00:10:26.295Z,0
2017-05-13T00:11:06.914Z,0
2017-05-13T00:11:47.507Z,0
2017-05-13T00:12:28.135Z,0
2017-05-13T00:13:08.773Z,0
2017-05-13T00:13:49.360Z,0
2017-05-13T00:14:29.950Z,0
2017-05-13T00:15:10.541Z,0
2017-05-13T00:15:51.121Z,0
2017-05-13T00:16:31.710Z,0
2017-05-13T00:17:12.291Z,0
2017-05-13T00:17:52.877Z,0
2017-05-13T00:18:33.448Z,0
2017-05-13T00:19:14.013Z,0
2017-05-13T00:19:54.620Z,0
2017-05-13T00:20:35.220Z,0
2017-05-13T00:21:15.806Z,0
2017-05-13T00:21:56.383Z,0
2017-05-13T00:22:36.979Z,0
2017-05-13T00:23:17.551Z,0
2017-05-13T00:23:58.127Z,0
2017-05-13T00:24:38.724Z,0
2017-05-13T00:25:19.350Z,0
2017-05-13T00:25:59.944Z,0
2017-05-13T00:26:40.576Z,0
2017-05-13T00:27:21.107Z,0
2017-05-13T00:28:01.699Z,0
2017-05-13T00:28:42.344Z,0
2017-05-13T00:29:22.965Z,0
2017-05-13T00:30:03.548Z,0
2017-05-13T00:30:44.100Z,0
2017-05-13T00:31:24.745Z,0
2017-05-13T00:32:05.365Z,0
2017-05-13T00:32:45.951Z,0
2017-05-13T00:33:26.521Z,0
2017-05-13T00:34:07.104Z,0
2017-05-13T00:34:47.677Z,0
2017-05-13T00:35:28.259Z,0
2017-05-13T00:36:08.898Z,0
2017-05-13T00:36:49.496Z,0
2017-05-13T00:37:30.070Z,0
2017-05-13T00:38:10.651Z,0
2017-05-13T00:38:51.254Z,0
2017-05-13T00:39:31.826Z,0
2017-05-13T00:40:12.404Z,0
2017-05-13T00:40:52.974Z,0
2017-05-13T00:41:33.565Z,0
2017-05-13T00:42:14.166Z,0
2017-05-13T00:42:54.789Z,0
2017-05-13T00:43:35.364Z,0
2017-05-13T00:44:15.955Z,0
2017-05-13T00:44:56.559Z,0
2017-05-13T00:45:37.196Z,0
2017-05-13T00:46:17.769Z,0
2017-05-13T00:46:58.361Z,0
2017-05-13T00:47:38.949Z,0
2017-05-13T00:48:19.547Z,0
2017-05-13T00:49:00.139Z,0
2017-05-13T00:49:40.775Z,0
2017-05-13T00:50:21.404Z,0
2017-05-13T00:51:01.981Z,0
2017-05-13T00:51:42.614Z,0
2017-05-13T00:52:23.205Z,0
2017-05-13T00:53:03.774Z,0
2017-05-13T00:53:44.443Z,0
2017-05-13T00:54:25.001Z,0
2017-05-13T00:55:05.574Z,0
2017-05-13T00:55:46.147Z,0
2017-05-13T00:56:26.736Z,0
2017-05-13T00:57:07.316Z,0
2017-05-13T00:57:47.895Z,0
2017-05-13T00:58:28.512Z,0
2017-05-13T00:59:09.133Z,0
2017-05-13T00:59:49.698Z,0
2017-05-13T01:00:30.271Z,0
2017-05-13T01:01:10.856Z,0
2017-05-13T01:01:51.455Z,0
2017-05-13T01:02:32.032Z,0
2017-05-13T01:03:12.619Z,0
2017-05-13T01:03:53.186Z,0
2017-05-13T01:04:33.764Z,0
2017-05-13T01:05:14.351Z,0
2017-05-13T01:05:54.976Z,0
2017-05-13T01:06:35.545Z,0
2017-05-13T01:07:16.127Z,0
2017-05-13T01:07:56.745Z,0
2017-05-13T01:08:37.335Z,0
2017-05-13T01:09:17.942Z,0
2017-05-13T01:09:58.537Z,0
2017-05-13T01:10:39.153Z,0
2017-05-13T01:11:19.769Z,0
2017-05-13T01:12:00.354Z,0
2017-05-13T01:12:40.925Z,0
2017-05-13T01:13:21.494Z,0
2017-05-13T01:14:02.097Z,0
2017-05-13T01:14:42.675Z,0
2017-05-13T01:15:23.284Z,0
2017-05-13T01:16:03.872Z,0
2017-05-13T01:16:44.486Z,0
2017-05-13T01:17:25.056Z,0
2017-05-13T01:18:05.654Z,0
2017-05-13T01:18:46.245Z,0
2017-05-13T01:19:26.856Z,0
2017-05-13T01:20:07.444Z,0
2017-05-13T01:20:48.017Z,0
2017-05-13T01:21:28.617Z,0
2017-05-13T01:22:09.218Z,0
2017-05-13T01:22:49.788Z,0
2017-05-13T01:23:30.396Z,0
2017-05-13T01:24:10.973Z,0
2017-05-13T01:24:51.571Z,0
2017-05-13T01:25:32.168Z,0
2017-05-13T01:26:12.767Z,0
2017-05-13T01:26:53.336Z,0
2017-05-13T01:27:33.942Z,0
2017-05-13T01:28:14.519Z,0
2017-05-13T01:28:55.122Z,0
2017-05-13T01:29:35.707Z,0
2017-05-13T01:30:16.305Z,0
2017-05-13T01:30:56.894Z,0
2017-05-13T01:31:37.479Z,0
2017-05-13T01:32:18.099Z,0
2017-05-13T01:32:58.699Z,0
2017-05-13T01:33:39.325Z,0
2017-05-13T01:34:19.937Z,0
2017-05-13T01:35:00.525Z,0
2017-05-13T01:35:41.147Z,0
2017-05-13T01:36:21.733Z,0
2017-05-13T01:37:02.326Z,0
2017-05-13T01:37:42.913Z,0
2017-05-13T01:38:23.490Z,0
2017-05-13T01:39:04.081Z,0
2017-05-13T01:39:44.723Z,0
2017-05-13T01:40:25.305Z,0
2017-05-13T01:41:05.874Z,0
2017-05-13T01:41:46.444Z,0
2017-05-13T01:42:27.016Z,0
2017-05-13T01:43:07.592Z,0
2017-05-13T01:43:48.208Z,0
2017-05-13T01:44:28.818Z,0
2017-05-13T01:45:09.402Z,0
2017-05-13T01:45:49.968Z,0
2017-05-13T01:46:30.811Z,0
2017-05-13T01:47:11.362Z,0
2017-05-13T01:47:51.947Z,0
2017-05-13T01:48:32.535Z,0
2017-05-13T01:49:13.176Z,0
2017-05-13T01:49:53.769Z,0
2017-05-13T01:50:34.367Z,0
2017-05-13T01:51:14.941Z,0
2017-05-13T01:51:55.525Z,0
2017-05-13T01:52:36.104Z,0
2017-05-13T01:53:16.675Z,0
2017-05-13T01:53:57.306Z,0
2017-05-13T01:54:37.896Z,0
2017-05-13T01:55:18.494Z,0
2017-05-13T01:55:59.078Z,0
2017-05-13T01:56:39.685Z,0
2017-05-13T01:57:20.284Z,0
2017-05-13T01:58:00.875Z,0
2017-05-13T01:58:41.448Z,0
2017-05-13T01:59:22.043Z,0
2017-05-13T02:00:02.627Z,0
2017-05-13T02:00:43.209Z,0
2017-05-13T02:01:23.774Z,0
2017-05-13T02:02:04.370Z,0
2017-05-13T02:02:44.963Z,0
2017-05-13T02:03:25.576Z,0
2017-05-13T02:04:06.164Z,0
2017-05-13T02:04:46.731Z,0
2017-05-13T02:05:27.308Z,0
2017-05-13T02:06:07.877Z,0
2017-05-13T02:06:48.493Z,0
2017-05-13T02:07:29.070Z,0
2017-05-13T02:08:09.635Z,0
2017-05-13T02:08:50.223Z,0
2017-05-13T02:09:30.844Z,0
2017-05-13T02:10:11.452Z,0
2017-05-13T02:10:52.022Z,0
2017-05-13T02:11:32.619Z,0
2017-05-13T02:12:13.228Z,0
2017-05-13T02:12:53.895Z,0
2017-05-13T02:13:34.496Z,0
2017-05-13T02:14:15.093Z,0
2017-05-13T02:14:55.687Z,0
2017-05-13T02:15:36.285Z,0
2017-05-13T02:16:16.891Z,0
2017-05-13T02:16:57.545Z,0
2017-05-13T02:17:38.113Z,0
2017-05-13T02:18:18.692Z,0
2017-05-13T02:18:59.310Z,0
2017-05-13T02:19:39.912Z,0
2017-05-13T02:20:20.503Z,0
2017-05-13T02:21:01.119Z,0
2017-05-13T02:21:41.715Z,0
2017-05-13T02:22:22.320Z,0
2017-05-13T02:23:02.895Z,0
2017-05-13T02:23:43.481Z,0
2017-05-13T02:24:24.081Z,0
2017-05-13T02:25:04.664Z,0
2017-05-13T02:25:45.262Z,0
2017-05-13T02:26:25.835Z,0
2017-05-13T02:27:06.409Z,0
2017-05-13T02:27:47.013Z,0
2017-05-13T02:28:27.616Z,0
2017-05-13T02:29:08.220Z,0
2017-05-13T02:29:48.830Z,0
2017-05-13T02:30:29.419Z,0
2017-05-13T02:31:10.040Z,0
2017-05-13T02:31:50.669Z,0
2017-05-13T02:32:31.269Z,0
2017-05-13T02:33:11.833Z,0
2017-05-13T02:33:52.426Z,0
2017-05-13T02:34:33.002Z,0
2017-05-13T02:35:13.575Z,0
2017-05-13T02:35:54.164Z,0
2017-05-13T02:36:34.729Z,0
2017-05-13T02:37:15.351Z,0
2017-05-13T02:37:55.971Z,0
2017-05-13T02:38:36.554Z,0
2017-05-13T02:39:17.202Z,0
2017-05-13T02:39:57.862Z,0
2017-05-13T02:40:38.500Z,0
2017-05-13T02:41:19.292Z,0
2017-05-13T02:41:59.935Z,0
2017-05-13T02:42:40.559Z,0
2017-05-13T02:43:21.216Z,0
2017-05-13T02:44:01.872Z,0
2017-05-13T02:44:42.456Z,0
2017-05-13T02:45:23.411Z,0
2017-05-13T02:46:04.042Z,0
2017-05-13T02:46:44.682Z,0
2017-05-13T02:47:25.282Z,0
2017-05-13T02:48:05.956Z,0
2017-05-13T02:48:46.773Z,0
2017-05-13T02:49:27.410Z,0
2017-05-13T02:50:08.168Z,0
2017-05-13T02:50:48.763Z,0
2017-05-13T02:51:29.370Z,0
2017-05-13T02:52:09.943Z,0
2017-05-13T02:52:50.547Z,0
2017-05-13T02:53:31.134Z,0
2017-05-13T02:54:11.719Z,0
2017-05-13T02:54:52.352Z,0
2017-05-13T02:55:32.966Z,0
2017-05-13T02:56:13.558Z,0
2017-05-13T02:56:54.140Z,0
2017-05-13T02:57:34.788Z,0
2017-05-13T02:58:15.413Z,0
2017-05-13T02:58:55.992Z,0
2017-05-13T02:59:36.598Z,0
2017-05-13T03:00:17.172Z,0
2017-05-13T03:00:57.836Z,0
2017-05-13T03:01:38.422Z,0
2017-05-13T03:02:19.003Z,0
2017-05-13T03:02:59.581Z,0
2017-05-13T03:03:40.176Z,0
2017-05-13T03:04:20.759Z,0
2017-05-13T03:05:01.377Z,0
2017-05-13T03:05:42.372Z,0
2017-05-13T03:06:22.801Z,0
2017-05-13T03:07:03.415Z,0
2017-05-13T03:07:44.013Z,0
2017-05-13T03:08:24.592Z,0
2017-05-13T03:09:05.215Z,0
2017-05-13T03:09:45.827Z,0
2017-05-13T03:10:26.420Z,0
2017-05-13T03:11:07.057Z,0
2017-05-13T03:11:47.695Z,0
2017-05-13T03:12:28.304Z,0
2017-05-13T03:13:08.910Z,0
2017-05-13T03:13:49.514Z,0
2017-05-13T03:14:30.107Z,0
2017-05-13T03:15:10.757Z,0
2017-05-13T03:15:51.487Z,0
2017-05-13T03:16:32.140Z,0
2017-05-13T03:17:13.120Z,0
2017-05-13T03:17:53.761Z,0
2017-05-13T03:18:34.367Z,0
2017-05-13T03:19:14.974Z,0
2017-05-13T03:19:55.534Z,0
2017-05-13T03:20:36.118Z,0
2017-05-13T03:21:16.787Z,0
2017-05-13T03:21:57.407Z,0
2017-05-13T03:22:38.080Z,0
2017-05-13T03:23:18.652Z,0
2017-05-13T03:23:59.243Z,0
2017-05-13T03:24:39.899Z,0
2017-05-13T03:25:20.627Z,0
2017-05-13T03:26:01.338Z,0
2017-05-13T03:26:42.087Z,0
2017-05-13T03:27:22.747Z,0
2017-05-13T03:28:03.350Z,0
2017-05-13T03:28:43.927Z,0
2017-05-13T03:29:24.526Z,0
2017-05-13T03:30:05.109Z,0
2017-05-13T03:30:45.689Z,0
2017-05-13T03:31:26.271Z,0
2017-05-13T03:32:06.901Z,0
2017-05-13T03:32:47.518Z,0
2017-05-13T03:33:28.158Z,0
2017-05-13T03:34:08.732Z,0
2017-05-13T03:34:49.428Z,0
2017-05-13T03:35:30.835Z,0
2017-05-13T03:36:11.473Z,0
2017-05-13T03:36:52.977Z,0
2017-05-13T03:37:33.572Z,0
2017-05-13T03:38:14.366Z,0
2017-05-13T03:38:54.997Z,0
2017-05-13T03:39:35.618Z,0
2017-05-13T03:40:16.199Z,0
2017-05-13T03:40:56.821Z,0
2017-05-13T03:41:37.487Z,0
2017-05-13T03:42:18.085Z,0
2017-05-13T03:42:58.922Z,0
2017-05-13T03:43:39.653Z,0
2017-05-13T03:44:20.236Z,0
2017-05-13T03:45:01.099Z,0
2017-05-13T03:45:41.691Z,0
2017-05-13T03:46:22.349Z,0
2017-05-13T03:47:02.926Z,0
2017-05-13T03:47:43.538Z,0
2017-05-13T03:48:24.156Z,0
2017-05-13T03:49:04.726Z,0
2017-05-13T03:49:45.844Z,0
2017-05-13T03:50:26.572Z,0
2017-05-13T03:51:07.790Z,0
2017-05-13T03:51:48.452Z,0
2017-05-13T03:52:29.358Z,0
2017-05-13T03:53:10.346Z,0
2017-05-13T03:53:51.441Z,0
2017-05-13T03:54:32.260Z,0
2017-05-13T03:55:13.186Z,0
2017-05-13T03:55:54.240Z,0
2017-05-13T03:56:35.056Z,0
2017-05-13T03:57:16.222Z,0
2017-05-13T03:57:56.969Z,0
2017-05-13T03:58:37.650Z,0
2017-05-13T03:59:18.249Z,0
2017-05-13T03:59:58.929Z,5
2017-05-13T04:00:39.590Z,5
2017-05-13T04:01:20.238Z,5
2017-05-13T04:02:00.880Z,5
2017-05-13T04:02:41.461Z,5
2017-05-13T04:03:22.096Z,5
2017-05-13T04:04:02.693Z,5
2017-05-13T04:04:43.309Z,5
2017-05-13T04:05:23.895Z,5
2017-05-13T04:06:04.494Z,5
2017-05-13T04:06:45.108Z,5
2017-05-13T04:07:25.878Z,5
2017-05-13T04:08:06.877Z,5
2017-05-13T04:08:47.576Z,5
2017-05-13T04:09:28.253Z,5
2017-05-13T04:10:08.858Z,5
2017-05-13T04:10:49.540Z,5
2017-05-13T04:11:30.269Z,5
2017-05-13T04:12:10.941Z,5
2017-05-13T04:12:51.650Z,5
2017-05-13T04:13:32.294Z,5
2017-05-13T04:14:12.925Z,5
2017-05-13T04:14:53.540Z,5
2017-05-13T04:15:34.262Z,5
2017-05-13T04:16:15.374Z,5
2017-05-13T04:16:56.000Z,5
2017-05-13T04:17:36.649Z,5
2017-05-13T04:18:17.244Z,5
2017-05-13T04:18:57.828Z,5
2017-05-13T04:19:38.731Z,5
2017-05-13T04:20:19.567Z,5
2017-05-13T04:21:00.650Z,5
2017-05-13T04:21:41.223Z,5
2017-05-13T04:22:22.111Z,5
2017-05-13T04:23:02.993Z,5
2017-05-13T04:23:44.377Z,5
2017-05-13T04:24:25.322Z,5
2017-05-13T04:25:05.983Z,5
2017-05-13T04:25:46.874Z,5
2017-05-13T04:26:28.208Z,10
2017-05-13T04:27:09.004Z,10
2017-05-13T04:27:49.997Z,10
2017-05-13T04:28:31.038Z,10
2017-05-13T04:29:11.622Z,10
2017-05-13T04:29:52.442Z,10
2017-05-13T04:30:33.056Z,10
2017-05-13T04:31:13.668Z,10
2017-05-13T04:31:54.294Z,10
2017-05-13T04:32:34.918Z,10
2017-05-13T04:33:15.525Z,10
2017-05-13T04:33:56.164Z,10
2017-05-13T04:34:36.765Z,10
2017-05-13T04:35:17.471Z,10
2017-05-13T04:35:58.108Z,10
2017-05-13T04:36:38.713Z,10
2017-05-13T04:37:19.356Z,10
2017-05-13T04:38:00.277Z,10
2017-05-13T04:38:40.876Z,10
2017-05-13T04:39:21.754Z,10
2017-05-13T04:40:02.508Z,10
2017-05-13T04:40:43.404Z,10
2017-05-13T04:41:24.094Z,10
2017-05-13T04:42:04.703Z,10
2017-05-13T04:42:45.737Z,10
2017-05-13T04:43:26.776Z,10
2017-05-13T04:44:07.175Z,10
2017-05-13T04:44:47.783Z,5
2017-05-13T04:45:28.370Z,5
2017-05-13T04:46:09.224Z,5
2017-05-13T04:46:50.053Z,5
2017-05-13T04:47:30.753Z,5
2017-05-13T04:48:11.614Z,5
2017-05-13T04:48:52.468Z,5
2017-05-13T04:49:33.056Z,5
2017-05-13T04:50:13.998Z,10
2017-05-13T04:50:54.745Z,10
2017-05-13T04:51:35.376Z,10
2017-05-13T04:52:16.079Z,10
2017-05-13T04:52:56.660Z,10
2017-05-13T04:53:37.257Z,10
2017-05-13T04:54:18.024Z,10
2017-05-13T04:54:58.704Z,10
2017-05-13T04:55:39.394Z,10
2017-05-13T04:56:20.082Z,10
2017-05-13T04:57:00.663Z,15
2017-05-13T04:57:41.279Z,15
2017-05-13T04:58:22.038Z,15
2017-05-13T04:59:02.693Z,15
2017-05-13T04:59:43.285Z,15
2017-05-13T05:00:23.873Z,15
2017-05-13T05:01:04.486Z,15
2017-05-13T05:01:45.112Z,15
2017-05-13T05:02:25.693Z,15
2017-05-13T05:03:06.717Z,15
2017-05-13T05:03:47.472Z,15
2017-05-13T05:04:28.072Z,15
2017-05-13T05:05:08.657Z,15
2017-05-13T05:05:49.263Z,15
2017-05-13T05:06:30.034Z,15
2017-05-13T05:07:10.955Z,15
2017-05-13T05:07:51.589Z,15
2017-05-13T05:08:32.415Z,15
2017-05-13T05:09:13.041Z,15
2017-05-13T05:09:53.668Z,20
2017-05-13T05:10:34.274Z,20
2017-05-13T05:11:14.978Z,20
2017-05-13T05:11:55.744Z,20
2017-05-13T05:12:36.373Z,20
2017-05-13T05:13:17.260Z,20
2017-05-13T05:13:58.149Z,20
2017-05-13T05:14:38.802Z,20
2017-05-13T05:15:19.442Z,20
2017-05-13T05:16:00.304Z,20
2017-05-13T05:16:41.031Z,20
2017-05-13T05:17:21.709Z,20
2017-05-13T05:18:02.388Z,20
2017-05-13T05:18:43.037Z,25
2017-05-13T05:19:23.832Z,25
2017-05-13T05:20:04.439Z,25
2017-05-13T05:20:45.312Z,25
2017-05-13T05:21:25.882Z,25
2017-05-13T05:22:06.680Z,25
2017-05-13T05:22:47.479Z,25
2017-05-13T05:23:28.098Z,25
2017-05-13T05:24:08.869Z,25
2017-05-13T05:24:49.655Z,25
2017-05-13T05:25:30.711Z,25
2017-05-13T05:26:11.442Z,25
2017-05-13T05:26:52.498Z,25
2017-05-13T05:27:33.117Z,25
2017-05-13T05:28:13.872Z,25
2017-05-13T05:28:55.091Z,25
2017-05-13T05:29:35.950Z,25
2017-05-13T05:30:16.558Z,25
2017-05-13T05:30:57.155Z,25
2017-05-13T05:31:37.824Z,25
2017-05-13T05:32:19.158Z,25
2017-05-13T05:33:00.089Z,25
2017-05-13T05:33:40.969Z,25
2017-05-13T05:34:21.623Z,25
2017-05-13T05:35:02.300Z,25
2017-05-13T05:35:42.918Z,25
2017-05-13T05:36:23.558Z,25
2017-05-13T05:37:04.168Z,25
2017-05-13T05:37:45.145Z,20
2017-05-13T05:38:25.830Z,20
2017-05-13T05:39:06.582Z,20
2017-05-13T05:39:47.167Z,20
2017-05-13T05:40:27.754Z,20
2017-05-13T05:41:08.446Z,20
2017-05-13T05:41:49.566Z,20
2017-05-13T05:42:30.449Z,20
2017-05-13T05:43:11.122Z,20
2017-05-13T05:43:52.133Z,20
2017-05-13T05:44:32.667Z,20
2017-05-13T05:45:13.383Z,20
2017-05-13T05:45:54.207Z,20
2017-05-13T05:46:34.869Z,20
2017-05-13T05:47:15.503Z,20
2017-05-13T05:47:56.125Z,20
2017-05-13T05:48:36.716Z,20
2017-05-13T05:49:17.316Z,20
2017-05-13T05:49:57.903Z,20
2017-05-13T05:50:38.773Z,20
2017-05-13T05:51:19.643Z,25
2017-05-13T05:52:00.498Z,25
2017-05-13T05:52:41.314Z,25
2017-05-13T05:53:22.221Z,25
2017-05-13T05:54:02.968Z,25
2017-05-13T05:54:43.617Z,25
2017-05-13T05:55:24.245Z,25
2017-05-13T05:56:04.881Z,25
2017-05-13T05:56:45.644Z,25
2017-05-13T05:57:26.331Z,25
2017-05-13T05:58:07.097Z,25
2017-05-13T05:58:47.733Z,25
2017-05-13T05:59:28.328Z,25
2017-05-13T06:00:08.915Z,25
2017-05-13T06:00:49.966Z,25
2017-05-13T06:01:30.692Z,25
2017-05-13T06:02:11.299Z,25
2017-05-13T06:02:51.913Z,25
2017-05-13T06:03:32.527Z,25
2017-05-13T06:04:13.261Z,25
2017-05-13T06:04:53.960Z,25
2017-05-13T06:05:34.627Z,25
2017-05-13T06:06:15.581Z,25
2017-05-13T06:06:56.262Z,25
2017-05-13T06:07:37.010Z,25
2017-05-13T06:08:17.598Z,25
2017-05-13T06:08:58.205Z,25
2017-05-13T06:09:38.896Z,25
2017-05-13T06:10:19.684Z,25
2017-05-13T06:11:00.586Z,30
2017-05-13T06:11:41.179Z,30
2017-05-13T06:12:21.785Z,30
2017-05-13T06:13:02.387Z,30
2017-05-13T06:13:43.046Z,30
2017-05-13T06:14:23.669Z,30
2017-05-13T06:15:04.304Z,30
2017-05-13T06:15:45.201Z,30
2017-05-13T06:16:26.135Z,30
2017-05-13T06:17:06.766Z,35
2017-05-13T06:17:47.398Z,35
2017-05-13T06:18:28.173Z,35
2017-05-13T06:19:08.795Z,35
2017-05-13T06:19:49.560Z,35
2017-05-13T06:20:30.326Z,35
2017-05-13T06:21:10.941Z,40
2017-05-13T06:21:51.562Z,40
2017-05-13T06:22:32.450Z,40
2017-05-13T06:23:13.081Z,40
2017-05-13T06:23:53.876Z,40
2017-05-13T06:24:34.909Z,40
2017-05-13T06:25:16.800Z,40
2017-05-13T06:25:56.631Z,40
2017-05-13T06:26:37.398Z,40
2017-05-13T06:27:18.126Z,40
2017-05-13T06:27:58.799Z,40
2017-05-13T06:28:39.505Z,40
2017-05-13T06:29:20.090Z,40
2017-05-13T06:30:00.686Z,40
2017-05-13T06:30:41.296Z,40
2017-05-13T06:31:22.345Z,45
2017-05-13T06:32:02.817Z,45
2017-05-13T06:32:43.408Z,45
2017-05-13T06:33:24.006Z,45
2017-05-13T06:34:04.775Z,45
2017-05-13T06:34:45.515Z,45
2017-05-13T06:35:26.341Z,50
2017-05-13T06:36:07.028Z,50
2017-05-13T06:36:47.643Z,50
2017-05-13T06:37:28.228Z,50
2017-05-13T06:38:08.798Z,50
2017-05-13T06:38:49.381Z,50
2017-05-13T06:39:30.060Z,50
2017-05-13T06:40:10.657Z,55
2017-05-13T06:40:51.350Z,55
2017-05-13T06:41:32.247Z,55
2017-05-13T06:42:13.051Z,55
2017-05-13T06:42:54.109Z,55
2017-05-13T06:43:35.734Z,55
2017-05-13T06:44:16.368Z,55
2017-05-13T06:44:57.088Z,55
2017-05-13T06:45:37.879Z,60
2017-05-13T06:46:18.633Z,60
2017-05-13T06:46:59.231Z,60
2017-05-13T06:47:39.860Z,60
2017-05-13T06:48:20.445Z,60
2017-05-13T06:49:01.029Z,60
2017-05-13T06:49:41.637Z,65
2017-05-13T06:50:22.229Z,65
2017-05-13T06:51:02.919Z,65
2017-05-13T06:51:43.490Z,65
2017-05-13T06:52:24.059Z,65
2017-05-13T06:53:04.748Z,65
2017-05-13T06:53:45.466Z,60
2017-05-13T06:54:26.142Z,60
2017-05-13T06:55:06.843Z,60
2017-05-13T06:55:47.434Z,60
2017-05-13T06:56:28.141Z,60
2017-05-13T06:57:08.787Z,60
2017-05-13T06:57:49.561Z,60
2017-05-13T06:58:30.698Z,60
2017-05-13T06:59:11.547Z,60
2017-05-13T06:59:52.476Z,60
2017-05-13T07:00:33.161Z,60
2017-05-13T07:01:13.784Z,60
2017-05-13T07:01:54.403Z,60
2017-05-13T07:02:35.011Z,60
2017-05-13T07:03:15.629Z,60
2017-05-13T07:03:56.212Z,60
2017-05-13T07:04:36.831Z,60
2017-05-13T07:05:17.406Z,60
2017-05-13T07:05:57.977Z,60
2017-05-13T07:06:38.579Z,60
2017-05-13T07:07:19.168Z,60
2017-05-13T07:07:59.739Z,55
2017-05-13T07:08:40.342Z,55
2017-05-13T07:09:20.937Z,55
2017-05-13T07:10:01.730Z,55
2017-05-13T07:10:42.329Z,50
2017-05-13T07:11:23.014Z,50
2017-05-13T07:12:03.652Z,50
2017-05-13T07:12:44.278Z,50
2017-05-13T07:13:24.857Z,50
2017-05-13T07:14:05.505Z,50
2017-05-13T07:14:46.126Z,50
2017-05-13T07:15:26.728Z,50
2017-05-13T07:16:07.357Z,50
2017-05-13T07:16:47.956Z,50
2017-05-13T07:17:28.590Z,50
2017-05-13T07:18:09.162Z,50
2017-05-13T07:18:49.779Z,55
2017-05-13T07:19:30.447Z,55
2017-05-13T07:20:11.073Z,55
2017-05-13T07:20:51.652Z,55
2017-05-13T07:21:32.237Z,55
2017-05-13T07:22:12.835Z,55
2017-05-13T07:22:53.474Z,55
2017-05-13T07:23:34.055Z,55
2017-05-13T07:24:14.674Z,55
2017-05-13T07:25:01.208Z,55
2017-05-13T07:25:41.833Z,55
2017-05-13T07:26:22.447Z,55
2017-05-13T07:27:03.040Z,55
2017-05-13T07:27:43.629Z,55
2017-05-13T07:28:24.321Z,55
2017-05-13T07:29:04.922Z,55
2017-05-13T07:29:45.550Z,55
2017-05-13T07:30:26.179Z,55
2017-05-13T07:31:06.801Z,55
2017-05-13T07:31:47.436Z,55
2017-05-13T07:32:28.083Z,55
2017-05-13T07:33:08.709Z,55
2017-05-13T07:33:49.340Z,55
2017-05-13T07:34:29.969Z,55
2017-05-13T07:35:10.567Z,60
2017-05-13T07:35:51.169Z,60
2017-05-13T07:36:31.844Z,60
2017-05-13T07:37:12.443Z,60
2017-05-13T07:37:53.079Z,60
2017-05-13T07:38:33.676Z,60
2017-05-13T07:39:14.334Z,60
2017-05-13T07:39:54.977Z,55
2017-05-13T07:40:35.587Z,55
2017-05-13T07:41:25.570Z,55
2017-05-13T07:42:07.821Z,55
2017-05-13T07:42:51.186Z,55
2017-05-13T07:43:32.366Z,55
2017-05-13T07:44:20.494Z,55
2017-05-13T07:45:11.372Z,50
2017-05-13T07:46:10.803Z,50
2017-05-13T07:46:57.674Z,50
2017-05-13T07:47:45.040Z,50
2017-05-13T07:48:32.245Z,50
2017-05-13T07:49:13.982Z,50
2017-05-13T07:50:11.470Z,50
2017-05-13T07:50:57.327Z,50
2017-05-13T07:51:38.450Z,50
2017-05-13T07:52:24.930Z,50
2017-05-13T07:53:09.861Z,50
2017-05-13T07:53:53.725Z,45
2017-05-13T07:54:37.116Z,45
2017-05-13T07:55:17.716Z,45
2017-05-13T07:55:58.982Z,45
2017-05-13T07:56:39.629Z,45
2017-05-13T07:57:20.226Z,45
2017-05-13T07:58:00.830Z,45
2017-05-13T07:58:41.409Z,45
2017-05-13T07:59:22.015Z,45
2017-05-13T08:00:02.602Z,45
2017-05-13T08:00:43.187Z,45
2017-05-13T08:01:23.772Z,45
2017-05-13T08:02:04.390Z,45
2017-05-13T08:02:44.943Z,50
2017-05-13T08:03:25.748Z,50
2017-05-13T08:04:06.354Z,50
2017-05-13T08:04:46.950Z,50
2017-05-13T08:05:27.519Z,50
2017-05-13T08:06:08.091Z,50
2017-05-13T08:06:48.694Z,55
2017-05-13T08:07:29.279Z,50
2017-05-13T08:08:09.864Z,50
2017-05-13T08:08:50.460Z,50
2017-05-13T08:09:31.033Z,50
2017-05-13T08:10:11.662Z,50
2017-05-13T08:10:52.236Z,50
2017-05-13T08:11:32.822Z,50
2017-05-13T08:12:13.406Z,50
2017-05-13T08:12:54.009Z,50
2017-05-13T08:13:34.599Z,50
2017-05-13T08:14:15.177Z,50
2017-05-13T08:14:55.745Z,50
2017-05-13T08:15:36.319Z,50
2017-05-13T08:16:16.989Z,50
2017-05-13T08:16:57.550Z,50
2017-05-13T08:17:38.138Z,50
2017-05-13T08:18:18.718Z,45
2017-05-13T08:18:59.297Z,45
2017-05-13T08:19:39.905Z,45
2017-05-13T08:20:20.494Z,45
2017-05-13T08:21:01.115Z,50
2017-05-13T08:21:41.742Z,50
2017-05-13T08:22:22.337Z,50
2017-05-13T08:23:02.920Z,50
2017-05-13T08:23:43.491Z,50
2017-05-13T08:24:24.097Z,50
2017-05-13T08:25:04.700Z,50
2017-05-13T08:25:45.269Z,50
2017-05-13T08:26:25.870Z,50
2017-05-13T08:27:06.467Z,50
2017-05-13T08:27:47.046Z,50
2017-05-13T08:28:27.643Z,50
2017-05-13T08:29:08.254Z,50
2017-05-13T08:29:48.870Z,50
2017-05-13T08:30:29.455Z,50
2017-05-13T08:31:10.039Z,50
2017-05-13T08:31:51.243Z,50
2017-05-13T08:32:31.815Z,50
2017-05-13T08:33:12.444Z,50
2017-05-13T08:33:53.047Z,50
2017-05-13T08:34:33.647Z,50
2017-05-13T08:35:14.243Z,50
2017-05-13T08:35:54.828Z,50
2017-05-13T08:36:35.467Z,50
2017-05-13T08:37:16.086Z,50
2017-05-13T08:37:56.666Z,50
2017-05-13T08:38:37.273Z,50
2017-05-13T08:39:17.872Z,50
2017-05-13T08:39:58.501Z,50
2017-05-13T08:40:39.092Z,50
2017-05-13T08:41:19.727Z,50
2017-05-13T08:42:00.304Z,50
2017-05-13T08:42:40.908Z,50
2017-05-13T08:43:22.611Z,50
2017-05-13T08:44:04.835Z,50
2017-05-13T08:44:45.957Z,50
2017-05-13T08:45:28.264Z,50
2017-05-13T08:46:09.929Z,50
2017-05-13T08:46:51.035Z,50
2017-05-13T08:47:32.248Z,50
2017-05-13T08:48:13.068Z,50
2017-05-13T08:48:53.665Z,50
2017-05-13T08:49:34.283Z,50
2017-05-13T08:50:14.863Z,50
2017-05-13T08:50:55.825Z,55
2017-05-13T08:51:36.984Z,55
2017-05-13T08:52:18.132Z,60
2017-05-13T08:52:58.720Z,60
2017-05-13T08:53:39.296Z,65
2017-05-13T08:54:22.008Z,65
2017-05-13T08:55:03.941Z,65
2017-05-13T08:55:45.765Z,70
2017-05-13T08:56:27.517Z,70
2017-05-13T08:57:08.089Z,70
2017-05-13T08:57:50.211Z,70
2017-05-13T08:58:31.474Z,70
2017-05-13T08:59:12.469Z,70
2017-05-13T08:59:53.092Z,70
2017-05-13T09:00:33.873Z,65
2017-05-13T09:01:14.492Z,65
2017-05-13T09:01:55.085Z,60
2017-05-13T09:02:35.710Z,60
2017-05-13T09:03:16.350Z,55
2017-05-13T09:03:57.200Z,55
2017-05-13T09:04:37.798Z,55
2017-05-13T09:05:18.424Z,50
2017-05-13T09:05:59.024Z,50
2017-05-13T09:06:39.645Z,50
2017-05-13T09:07:20.765Z,50
2017-05-13T09:08:01.387Z,50
2017-05-13T09:08:42.021Z,50
2017-05-13T09:09:23.203Z,50
2017-05-13T09:10:03.922Z,50
2017-05-13T09:10:44.712Z,50
2017-05-13T09:11:25.347Z,50
2017-05-13T09:12:06.193Z,50
2017-05-13T09:12:46.965Z,50
2017-05-13T09:13:28.272Z,50
2017-05-13T09:14:09.127Z,50
2017-05-13T09:14:49.853Z,50
2017-05-13T09:15:31.032Z,50
2017-05-13T09:16:12.467Z,50
2017-05-13T09:16:53.343Z,50
2017-05-13T09:17:34.003Z,45
2017-05-13T09:18:14.710Z,45
2017-05-13T09:18:55.451Z,50
2017-05-13T09:19:36.392Z,55
2017-05-13T09:20:17.606Z,50
2017-05-13T09:20:59.413Z,50
2017-05-13T09:21:41.291Z,50
2017-05-13T09:22:21.893Z,50
2017-05-13T09:23:02.530Z,50
2017-05-13T09:23:43.351Z,50
2017-05-13T09:24:23.933Z,50
2017-05-13T09:25:04.551Z,50
2017-05-13T09:25:45.205Z,50
2017-05-13T09:26:26.538Z,50
2017-05-13T09:27:07.837Z,50
2017-05-13T09:27:48.426Z,50
2017-05-13T09:28:29.058Z,50
2017-05-13T09:29:09.650Z,50
2017-05-13T09:29:53.255Z,55
2017-05-13T09:30:37.257Z,55
2017-05-13T09:31:23.416Z,55
2017-05-13T09:32:07.542Z,60
2017-05-13T09:32:51.147Z,60
2017-05-13T09:33:31.795Z,65
2017-05-13T09:34:12.395Z,65
2017-05-13T09:34:55.335Z,70
2017-05-13T09:35:38.587Z,70
2017-05-13T09:36:23.288Z,75
2017-05-13T09:37:08.425Z,80
2017-05-13T09:37:52.027Z,80
2017-05-13T09:38:32.765Z,80
2017-05-13T09:39:13.604Z,80
2017-05-13T09:39:54.233Z,80
2017-05-13T09:40:34.857Z,80
2017-05-13T09:41:15.457Z,80
2017-05-13T09:41:56.070Z,80
2017-05-13T09:42:36.699Z,75
2017-05-13T09:43:17.270Z,75
2017-05-13T09:43:57.889Z,75
2017-05-13T09:44:38.485Z,75
2017-05-13T09:45:19.115Z,80
2017-05-13T09:45:59.716Z,80
2017-05-13T09:46:40.337Z,80
2017-05-13T09:47:21.000Z,80
2017-05-13T09:48:01.616Z,80
2017-05-13T09:48:42.267Z,80
2017-05-13T09:49:22.990Z,80
2017-05-13T09:50:03.516Z,80
2017-05-13T09:50:44.113Z,80
2017-05-13T09:51:24.732Z,80
2017-05-13T09:52:05.366Z,85